Etusivu
METAR-TAF:

METAR-TAF

Lentoasemat :

Assiut, Egypti

Leveyspiiri: 27-03N, Pituuspiiri: 031-01E, korkeus merenpinnasta: 226 m

Tämänhetkinen sää

Tämä raportti tehtiin 42 minuuttia sitten, kello 13.00 UTC
Tuuli 12 kn pohjoisen/luoteesta
Lämpötila 20°C
Kosteus 53%
Ilmanpaine 1016 hPa
Näkyvyys 10 km tai enemmän
Hajanaisia pilviä 2000 ft:n korkeudessa

METAR: HEAT 171300Z 34012KT 9999 SCT020 20/10 Q1016 NOSIG

Aika: 15:42 (13:42 UTC)

Sääennuste

Tämä raportti tehtiin 2 tuntia ja 42 minuuttia sitten, kello 11.00 UTC
Ennuste voimassa 17. päivästä klo 12 UTC - 18. päivään klo 18 UTC
Tuuli 12 kn pohjoisen/luoteesta
Näkyvyys: 7000 m
Ajoittain
17. päivästä klo 15 UTC - 17. päivään klo 21 UTC
Hajanaisia pilviä 2500 ft:n korkeudessa

TAF: HEAT 171100Z 1712/1818 34012KT 7000 NSC TEMPO 1715/1721 SCT025

Säähavainnot ja -ennusteet yli 4000 lentoasemalta (METAR- ja TAF-raportit).

Käytössä olevat sääasemat on merkitty karttaan keltaisilla ja punaisilla pisteillä.

Aseta hiiri pisteen päälle nähdäksesi sääaseman nimen.

Klikkaa sitten nähdäksesi säähavainnot ja -ennusteet.

Kartan vaihtaminen: klikkaa mustalla rastilla varustettuja vihreitä pisteitä, niin voit zoomata sisään; viivalla varustettua vihreää pistettä, niin voit zoomata ulos tai vihreitä nuolia, niin pääset viereisille kartoille.


METAR-TAF: